createdAt,value
2018-03-06T00:00:26.048Z,0.61
2018-03-06T00:02:54.324Z,0.67
2018-03-06T00:05:22.577Z,0.58
2018-03-06T00:07:50.856Z,0.51
2018-03-06T00:10:19.112Z,0.38
2018-03-06T00:12:48.148Z,0.30
2018-03-06T00:15:16.429Z,0.14
2018-03-06T00:17:44.692Z,0.15
2018-03-06T00:20:13.013Z,-0.01
2018-03-06T00:22:41.272Z,-0.09
2018-03-06T00:25:09.538Z,-0.02
2018-03-06T00:27:37.819Z,0.08
2018-03-06T00:30:06.082Z,0.09
2018-03-06T00:32:34.336Z,0.13
2018-03-06T00:35:02.616Z,0.13
2018-03-06T00:37:30.863Z,0.00
2018-03-06T00:39:59.896Z,-0.25
2018-03-06T00:42:28.171Z,-0.67
2018-03-06T00:44:56.471Z,-1.21
2018-03-06T00:47:24.744Z,-0.95
2018-03-06T00:49:53.028Z,-0.75
2018-03-06T00:52:21.299Z,-0.56
2018-03-06T00:54:49.564Z,-0.38
2018-03-06T00:57:17.839Z,-0.34
2018-03-06T00:59:46.131Z,-0.23
2018-03-06T01:02:14.407Z,-0.21
2018-03-06T01:04:42.660Z,-0.20
2018-03-06T01:07:10.932Z,-0.04
2018-03-06T01:09:39.203Z,0.09
2018-03-06T01:12:07.467Z,0.13
2018-03-06T01:14:35.740Z,0.14
2018-03-06T01:17:04.108Z,0.13
2018-03-06T01:19:33.135Z,0.02
2018-03-06T01:22:01.400Z,-0.08
2018-03-06T01:24:29.683Z,-0.15
2018-03-06T01:26:57.959Z,-0.06
2018-03-06T01:29:26.221Z,-0.01
2018-03-06T01:31:54.508Z,-0.08
2018-03-06T01:34:22.765Z,-0.14
2018-03-06T01:36:51.052Z,-0.36
2018-03-06T01:39:19.344Z,-0.31
2018-03-06T01:41:47.612Z,-0.43
2018-03-06T01:44:15.893Z,-0.38
2018-03-06T01:46:44.161Z,-0.17
2018-03-06T01:49:12.425Z,-0.06
2018-03-06T01:51:58.547Z,0.01
2018-03-06T01:54:27.577Z,-0.01
2018-03-06T01:56:55.849Z,-0.06
2018-03-06T01:59:24.141Z,-0.23
2018-03-06T02:01:53.187Z,-0.35
2018-03-06T02:04:21.451Z,-0.41
2018-03-06T02:06:49.718Z,-0.87
2018-03-06T02:09:18.004Z,-0.84
2018-03-06T02:11:46.266Z,-0.86
2018-03-06T02:14:14.591Z,-0.70
2018-03-06T02:16:42.868Z,-0.68
2018-03-06T02:19:11.185Z,-0.59
2018-03-06T02:21:39.452Z,-0.56
2018-03-06T02:24:08.480Z,-0.50
2018-03-06T02:26:36.763Z,-0.49
2018-03-06T02:29:05.040Z,-0.50
2018-03-06T02:31:33.304Z,-0.57
2018-03-06T02:34:01.592Z,-0.59
2018-03-06T02:36:29.877Z,-0.53
2018-03-06T02:38:58.133Z,-0.44
2018-03-06T02:41:26.392Z,-0.55
2018-03-06T02:43:54.671Z,-0.84
2018-03-06T02:46:22.939Z,-0.73
2018-03-06T02:48:51.228Z,-1.18
2018-03-06T02:51:19.511Z,-0.98
2018-03-06T02:53:47.771Z,-1.14
2018-03-06T02:56:16.056Z,-1.18
2018-03-06T02:58:44.341Z,-1.15
2018-03-06T03:01:12.618Z,-1.05
2018-03-06T03:03:40.928Z,-0.96
2018-03-06T03:06:09.235Z,-0.84
2018-03-06T03:08:38.268Z,-0.99
2018-03-06T03:11:06.556Z,-0.93
2018-03-06T03:13:34.828Z,-0.87
2018-03-06T03:16:03.111Z,-0.70
2018-03-06T03:18:31.398Z,-0.58
2018-03-06T03:21:00.428Z,-0.52
2018-03-06T03:23:29.483Z,-0.50
2018-03-06T03:25:57.768Z,-0.57
2018-03-06T03:28:26.049Z,-0.50
2018-03-06T03:30:54.326Z,-0.50
2018-03-06T03:33:22.633Z,-0.71
2018-03-06T03:35:51.843Z,-1.24
2018-03-06T03:38:20.126Z,-1.82
2018-03-06T03:40:48.425Z,-1.58
2018-03-06T03:43:16.715Z,-1.26
2018-03-06T03:45:44.984Z,-1.16
2018-03-06T03:48:14.291Z,-1.04
2018-03-06T03:50:42.612Z,-1.02
2018-03-06T03:53:11.634Z,-1.07
2018-03-06T03:55:39.920Z,-1.01
2018-03-06T03:58:08.198Z,-1.02
2018-03-06T04:00:36.493Z,-0.90
2018-03-06T04:03:04.790Z,-0.87
2018-03-06T04:05:33.098Z,-0.94
2018-03-06T04:08:01.392Z,-1.10
2018-03-06T04:10:29.668Z,-1.03
2018-03-06T04:12:57.929Z,-1.14
2018-03-06T04:15:26.204Z,-1.07
2018-03-06T04:17:54.511Z,-1.07
2018-03-06T04:20:22.791Z,-1.13
2018-03-06T04:22:51.087Z,-1.31
2018-03-06T04:25:19.356Z,-1.29
2018-03-06T04:27:47.654Z,-1.38
2018-03-06T04:30:15.944Z,-1.42
2018-03-06T04:32:44.977Z,-1.72
2018-03-06T04:35:13.240Z,-1.69
2018-03-06T04:37:41.536Z,-1.59
2018-03-06T04:40:09.834Z,-1.53
2018-03-06T04:42:38.098Z,-1.38
2018-03-06T04:45:06.388Z,-1.26
2018-03-06T04:47:34.652Z,-1.36
2018-03-06T04:50:02.948Z,-1.44
2018-03-06T04:52:31.221Z,-1.47
2018-03-06T04:54:59.490Z,-1.43
2018-03-06T04:57:27.812Z,-1.43
2018-03-06T04:59:56.079Z,-1.54
2018-03-06T05:02:25.121Z,-1.55
2018-03-06T05:04:53.411Z,-1.42
2018-03-06T05:07:21.691Z,-1.55
2018-03-06T05:09:49.975Z,-1.47
2018-03-06T05:12:18.262Z,-1.55
2018-03-06T05:14:46.533Z,-1.54
2018-03-06T05:17:14.811Z,-1.47
2018-03-06T05:19:43.876Z,-1.41
2018-03-06T05:22:12.149Z,-1.36
2018-03-06T05:24:40.416Z,-1.30
2018-03-06T05:27:08.708Z,-1.29
2018-03-06T05:29:36.971Z,-1.37
2018-03-06T05:32:05.228Z,-1.60
2018-03-06T05:34:33.535Z,-1.57
2018-03-06T05:37:01.805Z,-1.65
2018-03-06T05:39:30.071Z,-1.60
2018-03-06T05:41:58.354Z,-1.62
2018-03-06T05:44:26.619Z,-1.54
2018-03-06T05:46:54.895Z,-1.57
2018-03-06T05:49:23.179Z,-1.60
2018-03-06T05:51:51.452Z,-1.56
2018-03-06T05:54:19.717Z,-1.47
2018-03-06T05:56:48.007Z,-1.54
2018-03-06T05:59:16.275Z,-1.52
2018-03-06T06:01:44.556Z,-1.51
2018-03-06T06:04:12.843Z,-1.45
2018-03-06T06:06:41.104Z,-1.58
2018-03-06T06:09:09.436Z,-1.56
2018-03-06T06:11:38.492Z,-1.84
2018-03-06T06:14:06.772Z,-1.93
2018-03-06T06:16:35.044Z,-1.80
2018-03-06T06:19:03.325Z,-1.99
2018-03-06T06:21:31.650Z,-1.91
2018-03-06T06:24:00.685Z,-2.00
2018-03-06T06:26:28.964Z,-1.88
2018-03-06T06:28:57.228Z,-1.99
2018-03-06T06:31:25.484Z,-1.85
2018-03-06T06:33:53.787Z,-1.79
2018-03-06T06:36:22.059Z,-1.53
2018-03-06T06:38:50.329Z,-1.43
2018-03-06T06:41:18.621Z,-1.35
2018-03-06T06:43:46.910Z,-1.19
2018-03-06T06:46:15.211Z,-1.18
2018-03-06T06:48:43.513Z,-1.21
2018-03-06T06:51:11.773Z,-1.14
2018-03-06T06:53:40.847Z,-1.03
2018-03-06T06:56:09.134Z,-0.93
2018-03-06T06:58:38.909Z,-0.85
2018-03-06T07:01:07.164Z,-0.68
2018-03-06T07:03:35.472Z,-0.63
2018-03-06T07:06:03.748Z,-0.53
2018-03-06T07:08:32.020Z,-0.70
2018-03-06T07:11:00.312Z,-0.65
2018-03-06T07:13:28.600Z,-0.49
2018-03-06T07:15:56.869Z,-0.34
2018-03-06T07:18:25.181Z,-0.35
2018-03-06T07:20:54.200Z,-0.33
2018-03-06T07:23:22.472Z,-0.11
2018-03-06T07:25:50.739Z,0.03
2018-03-06T07:28:18.992Z,0.09
2018-03-06T07:30:48.036Z,0.30
2018-03-06T07:33:17.549Z,0.39
2018-03-06T07:35:45.801Z,0.55
2018-03-06T07:38:14.054Z,0.78
2018-03-06T07:40:43.083Z,0.91
2018-03-06T07:43:11.337Z,1.09
2018-03-06T07:45:39.596Z,1.28
2018-03-06T07:48:08.628Z,1.46
2018-03-06T07:50:36.888Z,1.57
2018-03-06T07:53:05.148Z,1.67
2018-03-06T07:55:33.451Z,1.56
2018-03-06T07:58:01.705Z,1.53
2018-03-06T08:00:29.962Z,1.48
2018-03-06T08:02:59.000Z,1.54
2018-03-06T08:05:27.267Z,1.51
2018-03-06T08:07:55.526Z,1.39
2018-03-06T08:10:23.796Z,1.67
2018-03-06T08:12:52.055Z,1.76
2018-03-06T08:15:21.072Z,1.96
2018-03-06T08:17:49.403Z,2.10
2018-03-06T08:20:17.668Z,2.21
2018-03-06T08:22:45.924Z,2.31
2018-03-06T08:25:14.222Z,2.44
2018-03-06T08:27:42.475Z,2.56
2018-03-06T08:30:10.744Z,2.70
2018-03-06T08:32:39.000Z,2.89
2018-03-06T08:35:07.254Z,3.11
2018-03-06T08:37:36.269Z,3.24
2018-03-06T08:40:04.537Z,2.87
2018-03-06T08:42:33.571Z,3.13
2018-03-06T08:45:01.855Z,3.33
2018-03-06T08:47:30.921Z,3.27
2018-03-06T08:49:59.172Z,3.20
2018-03-06T08:52:28.196Z,3.16
2018-03-06T08:54:56.468Z,3.32
2018-03-06T08:57:24.726Z,3.36
2018-03-06T08:59:52.987Z,3.59
2018-03-06T09:02:22.028Z,3.84
2018-03-06T09:04:50.286Z,4.14
2018-03-06T09:07:18.542Z,4.29
2018-03-06T09:09:47.572Z,4.44
2018-03-06T09:12:15.841Z,4.66
2018-03-06T09:14:44.102Z,4.85
2018-03-06T09:17:12.415Z,5.09
2018-03-06T09:19:40.667Z,5.31
2018-03-06T09:22:08.975Z,5.35
2018-03-06T09:24:37.243Z,5.45
2018-03-06T09:27:05.493Z,5.67
2018-03-06T09:29:33.761Z,5.57
2018-03-06T09:32:02.023Z,5.89
2018-03-06T09:34:31.062Z,6.07
2018-03-06T09:36:59.318Z,6.28
2018-03-06T09:39:27.605Z,6.29
2018-03-06T09:41:55.856Z,6.31
2018-03-06T09:44:24.112Z,6.40
2018-03-06T09:46:53.156Z,6.62
2018-03-06T09:49:21.415Z,6.56
2018-03-06T09:51:49.668Z,6.83
2018-03-06T09:54:17.936Z,6.97
2018-03-06T09:56:47.052Z,6.99
2018-03-06T09:59:15.300Z,7.14
2018-03-06T10:01:44.337Z,7.28
2018-03-06T10:04:12.591Z,7.37
2018-03-06T10:06:40.851Z,7.63
2018-03-06T10:09:09.973Z,7.82
2018-03-06T10:11:38.228Z,8.09
2018-03-06T10:14:06.484Z,8.10
2018-03-06T10:16:35.529Z,8.20
2018-03-06T10:19:03.780Z,8.48
2018-03-06T10:21:32.031Z,8.63
2018-03-06T10:24:01.076Z,8.37
2018-03-06T10:26:29.368Z,8.45
2018-03-06T10:28:57.626Z,8.88
2018-03-06T10:31:25.912Z,8.93
2018-03-06T10:33:54.172Z,8.92
2018-03-06T10:36:22.450Z,9.15
2018-03-06T10:38:50.727Z,9.22
2018-03-06T10:41:18.984Z,9.36
2018-03-06T10:43:47.249Z,9.64
2018-03-06T10:46:16.280Z,9.56
2018-03-06T10:48:44.561Z,9.87
2018-03-06T10:51:12.832Z,10.00
2018-03-06T10:53:41.116Z,9.91
2018-03-06T10:56:09.484Z,10.24
2018-03-06T10:58:37.760Z,10.66
2018-03-06T11:01:06.028Z,10.90
2018-03-06T11:03:34.298Z,11.15
2018-03-06T11:06:03.446Z,11.35
2018-03-06T11:08:31.713Z,11.11
2018-03-06T11:11:00.761Z,11.07
2018-03-06T11:13:29.031Z,11.31
2018-03-06T11:15:57.304Z,11.53
2018-03-06T11:18:25.651Z,11.60
2018-03-06T11:20:53.851Z,11.05
2018-03-06T11:23:22.124Z,11.15
2018-03-06T11:25:50.401Z,11.52
2018-03-06T11:28:20.363Z,11.83
2018-03-06T11:30:48.641Z,12.06
2018-03-06T11:33:16.908Z,12.04
2018-03-06T11:35:45.165Z,12.01
2018-03-06T11:38:13.446Z,11.95
2018-03-06T11:40:41.703Z,12.23
2018-03-06T11:43:09.968Z,12.25
2018-03-06T11:45:38.299Z,12.38
2018-03-06T11:48:06.584Z,12.42
2018-03-06T11:50:34.857Z,12.59
2018-03-06T11:53:03.131Z,12.74
2018-03-06T11:55:31.413Z,12.89
2018-03-06T11:57:59.684Z,13.12
2018-03-06T12:00:27.980Z,13.16
2018-03-06T12:02:56.255Z,13.15
2018-03-06T12:05:24.553Z,13.34
2018-03-06T12:07:53.584Z,13.52
2018-03-06T12:10:21.851Z,13.65
2018-03-06T12:12:50.132Z,13.40
2018-03-06T12:15:18.399Z,13.87
2018-03-06T12:17:46.684Z,14.08
2018-03-06T12:20:14.967Z,13.87
2018-03-06T12:22:43.236Z,14.03
2018-03-06T12:25:11.500Z,14.18
2018-03-06T12:27:39.884Z,14.42
2018-03-06T12:30:08.176Z,14.23
2018-03-06T12:32:36.424Z,14.32
2018-03-06T12:35:04.748Z,14.38
2018-03-06T12:37:33.004Z,14.36
2018-03-06T12:40:01.302Z,14.34
2018-03-06T12:42:29.574Z,14.42
2018-03-06T12:44:57.857Z,14.41
2018-03-06T12:47:26.144Z,14.17
2018-03-06T12:49:54.428Z,14.34
2018-03-06T12:52:23.468Z,14.60
2018-03-06T12:54:51.803Z,14.34
2018-03-06T12:57:20.044Z,14.57
2018-03-06T12:59:48.315Z,14.98
2018-03-06T13:02:16.611Z,15.00
2018-03-06T13:04:44.867Z,15.09
2018-03-06T13:07:13.174Z,15.24
2018-03-06T13:09:41.441Z,15.07
2018-03-06T13:12:09.699Z,14.73
2018-03-06T13:14:38.001Z,14.42
2018-03-06T13:17:06.271Z,14.81
2018-03-06T13:19:35.305Z,14.88
2018-03-06T13:22:03.584Z,15.18
2018-03-06T13:24:31.858Z,15.33
2018-03-06T13:27:00.126Z,15.61
2018-03-06T13:29:29.173Z,15.63
2018-03-06T13:31:57.439Z,15.69
2018-03-06T13:34:25.717Z,15.89
2018-03-06T13:36:54.004Z,16.00
2018-03-06T13:39:22.268Z,16.48
2018-03-06T13:41:50.535Z,16.48
2018-03-06T13:44:18.825Z,16.24
2018-03-06T13:46:47.096Z,16.46
2018-03-06T13:49:15.381Z,16.37
2018-03-06T13:51:43.651Z,16.94
2018-03-06T13:54:11.948Z,17.11
2018-03-06T13:56:40.218Z,17.25
2018-03-06T13:59:08.500Z,17.21
2018-03-06T14:01:36.761Z,17.33
2018-03-06T14:04:05.026Z,17.63
2018-03-06T14:06:33.301Z,18.14
2018-03-06T14:09:01.565Z,18.72
2018-03-06T14:11:29.828Z,18.39
2018-03-06T14:13:58.124Z,18.54
2018-03-06T14:16:26.400Z,18.72
2018-03-06T14:18:54.672Z,18.91
2018-03-06T14:21:22.962Z,18.98
2018-03-06T14:23:51.224Z,18.85
2018-03-06T14:26:19.488Z,18.82
2018-03-06T14:28:47.776Z,18.84
2018-03-06T14:31:16.040Z,18.32
2018-03-06T14:33:44.320Z,17.97
2018-03-06T14:36:12.612Z,18.48
2018-03-06T14:38:40.875Z,18.24
2018-03-06T14:41:09.245Z,18.23
2018-03-06T14:43:37.536Z,17.66
2018-03-06T14:46:05.804Z,17.92
2018-03-06T14:48:34.072Z,18.18
2018-03-06T14:51:02.380Z,18.25
2018-03-06T14:53:30.643Z,18.15
2018-03-06T14:55:58.925Z,18.13
2018-03-06T14:58:28.233Z,17.58
2018-03-06T15:00:56.499Z,17.00
2018-03-06T15:03:24.771Z,16.49
2018-03-06T15:05:53.064Z,15.74
2018-03-06T15:08:21.338Z,14.60
2018-03-06T15:10:49.609Z,14.81
2018-03-06T15:13:17.958Z,14.67
2018-03-06T15:15:46.248Z,13.69
2018-03-06T15:18:14.505Z,13.36
2018-03-06T15:20:42.795Z,13.51
2018-03-06T15:23:11.068Z,13.16
2018-03-06T15:25:39.372Z,13.31
2018-03-06T15:28:07.656Z,13.00
2018-03-06T15:30:35.928Z,12.96
2018-03-06T15:33:04.276Z,12.94
2018-03-06T15:35:32.573Z,12.99
2018-03-06T15:38:00.837Z,12.94
2018-03-06T15:40:29.107Z,13.04
2018-03-06T15:42:57.418Z,12.56
2018-03-06T15:45:25.755Z,12.87
2018-03-06T15:47:54.740Z,13.05
2018-03-06T15:50:23.028Z,13.26
2018-03-06T15:52:51.328Z,13.40
2018-03-06T15:55:19.626Z,13.37
2018-03-06T15:57:47.917Z,13.54
2018-03-06T16:00:16.969Z,13.67
2018-03-06T16:02:45.270Z,13.77
2018-03-06T16:05:13.701Z,13.85
2018-03-06T16:07:42.267Z,13.52
2018-03-06T16:10:10.674Z,13.56
2018-03-06T16:12:38.992Z,13.56
2018-03-06T16:15:09.172Z,13.34
2018-03-06T16:17:38.035Z,13.46
2018-03-06T16:20:06.839Z,13.48
2018-03-06T16:22:35.695Z,13.41
2018-03-06T16:25:04.727Z,13.39
2018-03-06T16:27:34.329Z,13.34
2018-03-06T16:30:03.920Z,12.99
2018-03-06T16:32:33.687Z,13.02
2018-03-06T16:35:03.086Z,12.99
2018-03-06T16:37:32.873Z,12.82
2018-03-06T16:40:03.524Z,12.78
2018-03-06T16:42:33.654Z,12.71
2018-03-06T16:45:03.564Z,12.47
2018-03-06T16:47:33.317Z,11.90
2018-03-06T16:50:02.738Z,11.97
2018-03-06T16:52:32.769Z,11.94
2018-03-06T16:55:03.415Z,11.92
2018-03-06T16:57:33.188Z,11.88
2018-03-06T17:00:02.970Z,11.82
2018-03-06T17:02:32.976Z,11.74
2018-03-06T17:05:02.760Z,11.64
2018-03-06T17:07:32.615Z,11.47
2018-03-06T17:10:02.607Z,11.32
2018-03-06T17:12:32.464Z,11.26
2018-03-06T17:15:02.494Z,11.23
2018-03-06T17:17:33.111Z,11.15
2018-03-06T17:20:03.112Z,11.02
2018-03-06T17:22:32.837Z,10.75
2018-03-06T17:25:02.771Z,10.69
2018-03-06T17:27:33.344Z,10.64
2018-03-06T17:30:03.412Z,10.61
2018-03-06T17:32:33.294Z,10.57
2018-03-06T17:35:03.143Z,10.53
2018-03-06T17:37:33.976Z,10.37
2018-03-06T17:40:04.609Z,9.98
2018-03-06T17:42:35.420Z,9.96
2018-03-06T17:45:05.350Z,9.96
2018-03-06T17:47:36.121Z,9.93
2018-03-06T17:50:06.326Z,9.91
2018-03-06T17:52:36.653Z,9.89
2018-03-06T17:55:07.201Z,9.83
2018-03-06T17:57:37.050Z,9.77
2018-03-06T18:00:07.007Z,9.67
2018-03-06T18:02:36.931Z,9.43
2018-03-06T18:05:06.659Z,9.18
2018-03-06T18:07:36.728Z,9.20
2018-03-06T18:10:07.478Z,8.35
2018-03-06T18:12:38.010Z,8.56
2018-03-06T18:15:08.709Z,8.62
2018-03-06T18:17:38.756Z,8.50
2018-03-06T18:20:09.393Z,8.42
2018-03-06T18:22:40.272Z,8.40
2018-03-06T18:25:10.266Z,8.49
2018-03-06T18:27:40.029Z,8.47
2018-03-06T18:30:09.964Z,8.46
2018-03-06T18:32:40.822Z,8.38
2018-03-06T18:35:10.939Z,8.07
2018-03-06T18:37:41.700Z,8.15
2018-03-06T18:40:11.673Z,8.21
2018-03-06T18:42:42.844Z,8.23
2018-03-06T18:45:12.802Z,8.16
2018-03-06T18:47:43.294Z,8.09
2018-03-06T18:50:30.789Z,8.07
2018-03-06T18:53:01.733Z,8.03
2018-03-06T18:55:31.550Z,7.79
2018-03-06T18:58:01.484Z,7.72
2018-03-06T19:04:02.470Z,7.74
2018-03-06T19:09:46.819Z,7.38
2018-03-06T19:12:16.764Z,7.29
2018-03-06T19:14:46.641Z,7.22
2018-03-06T19:17:16.941Z,7.13
2018-03-06T19:19:47.765Z,6.98
2018-03-06T19:22:18.642Z,6.90
2018-03-06T19:24:48.730Z,6.79
2018-03-06T19:27:18.748Z,6.78
2018-03-06T19:29:49.259Z,6.78
2018-03-06T19:32:19.038Z,6.77
2018-03-06T19:34:49.914Z,6.77
2018-03-06T19:37:21.367Z,6.56
2018-03-06T19:39:51.076Z,6.33
2018-03-06T19:42:22.762Z,6.36
2018-03-06T19:44:52.974Z,6.25
2018-03-06T19:47:22.998Z,6.26
2018-03-06T19:49:53.021Z,6.26
2018-03-06T19:52:23.047Z,6.27
2018-03-06T19:54:52.966Z,6.23
2018-03-06T19:57:23.105Z,6.23
2018-03-06T19:59:52.966Z,6.17
2018-03-06T20:02:23.744Z,6.15
2018-03-06T20:04:53.871Z,6.06
2018-03-06T20:07:24.059Z,6.00
2018-03-06T20:09:54.061Z,6.00
2018-03-06T20:12:23.923Z,5.91
2018-03-06T20:14:58.982Z,5.47
2018-03-06T20:17:29.790Z,5.10
2018-03-06T20:19:59.775Z,4.93
2018-03-06T20:22:30.595Z,4.96
2018-03-06T20:25:06.624Z,5.09
2018-03-06T20:27:39.303Z,5.18
2018-03-06T20:30:10.208Z,5.21
2018-03-06T20:32:45.398Z,5.20
2018-03-06T20:35:15.990Z,5.09
2018-03-06T20:37:47.669Z,5.13
2018-03-06T20:40:23.702Z,4.72
2018-03-06T20:42:53.881Z,4.74
2018-03-06T20:45:23.658Z,4.86
2018-03-06T20:47:55.364Z,4.90
2018-03-06T20:50:25.462Z,4.93
2018-03-06T20:53:00.679Z,4.98
2018-03-06T20:55:31.232Z,4.98
2018-03-06T20:58:01.394Z,4.79
2018-03-06T21:00:32.184Z,4.77
2018-03-06T21:03:03.735Z,4.89
2018-03-06T21:05:33.835Z,4.99
2018-03-06T21:08:03.962Z,4.99
2018-03-06T21:10:34.086Z,4.96
2018-03-06T21:13:03.693Z,4.81
2018-03-06T21:15:34.666Z,4.78
2018-03-06T21:18:04.671Z,4.73
2018-03-06T21:20:34.775Z,4.65
2018-03-06T21:23:04.654Z,4.64
2018-03-06T21:25:34.545Z,4.60
2018-03-06T21:28:04.515Z,4.42
2018-03-06T21:30:34.636Z,4.30
2018-03-06T21:33:04.678Z,4.39
2018-03-06T21:35:34.552Z,4.52
2018-03-06T21:38:05.489Z,4.59
2018-03-06T21:40:36.155Z,4.63
2018-03-06T21:43:06.175Z,4.54
2018-03-06T21:45:36.177Z,4.53
2018-03-06T21:48:06.336Z,4.44
2018-03-06T21:50:36.208Z,4.40
2018-03-06T21:53:06.041Z,3.77
2018-03-06T21:55:36.175Z,3.34
2018-03-06T21:58:06.407Z,3.57
2018-03-06T22:00:36.509Z,3.77
2018-03-06T22:03:06.453Z,3.94
2018-03-06T22:05:36.290Z,4.00
2018-03-06T22:08:06.307Z,3.80
2018-03-06T22:10:36.970Z,3.78
2018-03-06T22:13:06.824Z,3.96
2018-03-06T22:15:36.765Z,4.00
2018-03-06T22:18:06.594Z,4.07
2018-03-06T22:20:36.489Z,4.03
2018-03-06T22:23:06.147Z,4.02
2018-03-06T22:25:35.778Z,4.17
2018-03-06T22:28:04.916Z,4.28
2018-03-06T22:30:34.379Z,4.38
2018-03-06T22:33:02.798Z,4.35
2018-03-06T22:35:31.118Z,4.28
2018-03-06T22:37:59.400Z,4.28
2018-03-06T22:40:27.692Z,4.24
2018-03-06T22:42:56.716Z,4.01
2018-03-06T22:45:24.997Z,3.92
2018-03-06T22:47:53.275Z,4.05
2018-03-06T22:50:21.539Z,4.10
2018-03-06T22:52:49.829Z,4.15
2018-03-06T22:55:18.089Z,4.16
2018-03-06T22:57:46.385Z,4.16
2018-03-06T23:00:14.666Z,3.81
2018-03-06T23:02:42.957Z,3.69
2018-03-06T23:05:11.183Z,3.82
2018-03-06T23:07:40.280Z,3.82
2018-03-06T23:10:08.583Z,3.71
2018-03-06T23:12:37.631Z,3.72
2018-03-06T23:15:05.896Z,3.69
2018-03-06T23:17:34.220Z,3.68
2018-03-06T23:20:02.523Z,3.68
2018-03-06T23:22:30.767Z,3.57
2018-03-06T23:24:59.010Z,3.62
2018-03-06T23:27:27.282Z,3.54
2018-03-06T23:29:55.614Z,3.37
2018-03-06T23:32:23.870Z,3.41
2018-03-06T23:34:52.143Z,3.48
2018-03-06T23:37:20.414Z,3.58
2018-03-06T23:39:48.692Z,3.64
2018-03-06T23:42:16.935Z,3.69
2018-03-06T23:44:45.211Z,3.56
2018-03-06T23:47:13.459Z,3.50
2018-03-06T23:49:41.715Z,3.49
2018-03-06T23:52:09.981Z,3.35
2018-03-06T23:54:38.235Z,3.27
2018-03-06T23:57:07.542Z,3.27
2018-03-06T23:59:35.808Z,3.24
